TMI weather

Tumling Tar Airport
Tumling Tar, Kosi, Nepal

Public forecast

Using degrees Celsius for public forecast. Weather courtesy of forecast.io.

METAR (pilot weather report)

Closest report is Bagdogra Airport, 71.7 nm (132.7 km) ESE. Retrieved 2019/07/17 23:30 UTC (50 minutes ago):

VEBD 172330Z VRB02KT 5000 BR SCT030 SCT120 26/24 Q1002 NOSIG

TAF (pilot weather forecast)

Forecast is more than 6 hours old.

Closest forecast is Bagdogra Airport, 71.7 nm (132.7 km) ESE. Retrieved 2019/07/17 12:30 UTC (12 hours ago):

TAF VEBD 170930Z 1712/1724 05010KT 6000 SCT015 SCT025 SCT090 TEMPO 1718/1724 3000 TSRA SCT010 SCT020 FEW030CB BKN080